<h2>WHATSAPP GROUP</h2><p>Click Join in VIRTUAL BOARD</p> <h2>HKJK -- Nairobi</h2><p>newest destination to fly virtually</p> <h2>EGCC -- Manchester </h2><p>newest destination to fly virtually</p> <h2>Guangzhou - ZGGG</h2><p>newest destination to fly virtually</p> <h2>Delivery flight !</h2><p>B737 A4O-BAF Delivery flight . Book now and fly !        Seattle Boeing > Keflavik > Glasgow > Muscat . </p> <h2>CodeShare With Oman Air</h2><p>For Booking , Virtual Flight Booking > View Oman Air CodeShare Flight and enjoy !</p>

Oman Air Virtual

About Us. About Our VA

Book Virtual Flights

Fly from Muscat to the World Virtually!

OMV News & Updates

OMV Newest Pilot

OMV Statistics

Total Fights Loged Today: 2
Total Visits Past Hour: 2
Total Pilots Registered: 127
Total Flights Flown: 2758
Total Aircrafts Active: 50
Total Flight Schedules: 249
Total Miles Flown: 3027266
Total Hours Clocked: 7636.52
VA average landing rate: -26.08
Virtual Airline Rank: 130

Flight Tracking

LIVE Flight Tracking and Route

Destinations

View Our Wide Virtual Network

Flight # No. Origin Destination Fleet / PIC
OMA292 VOCL OOMS B737-81M

PIC: Husam Alshibli
OMA5244 LFPG EHAM B737-86N

PIC: Ayman Alghafri
OMA5408 WIII WADD B737-81M

PIC: Mohammed Al-Yousafi
OMA421 OOMS OLBA B737-81M

PIC: AHMAD AL HAEL

Coming Soon !!


Flight # No. Origin Destination Landing Rate Status
OMA122

View Report
OKBK OKBK 0 ft/min Not Record Approval Pending
OMA613

View Report
OOMS OMDB 0 ft/min Not Record Accepted
OMA605

View Report
OOMS OMDB 0 ft/min Not Record Accepted
OMA823

View Report
OOMS WMKK 0 ft/min Not Record Accepted
OMA312

View Report
VGEG OOMS -108 ft/min Normal landing Accepted

Source: IVAO Metar and TAF Information.

Muscat International Airport (ICAO: OOMS)
METAR: OOMS 220050Z 26007KT 8000 NSC 20/14 Q1014 NOSIG
TAF:

Salalah International Airport (ICAO: OOSA)
METAR: OOSA 220050Z 35004KT CAVOK 21/11 Q1015 NOSIG
TAF:

Oman Air Virtual is no way affiliated to the real Oman Air. How ever the brand logo, colors belongs to Oman Air and we use only for the Simulation Purpose for the virtual aviation enthousiast around the globe.

If you are looking for Oman Air website, we kindly request you to visit www.omanair.com

ATC Online IVAO
Pilots Online IVAO
Member Online